Search for airport 
image banner adimage banner adimage banner ad
image banner ad

NV33 - Farias Wheel

Located in Smith Valley, United States

ICAO - NV33, IATA -

Data provided by Airmate  

General information

Coordinates: N38°49'60" W119°23'46"
Elevation is 4848 feet MSL.
Magnetic variation is 16° East
View others Airports in Nevada

Operational data

Special qualification required
Current time UTC:
Current local time:
Weather at : KMEV - Minden-Tahoe ( 36 km )
METAR: KMEV 131055Z AUTO 15003KT 10SM CLR 08/04 A3001 RMK AO2
TAF: KMEV 130530Z 1306/1406 11005KT P6SM FEW250 FM132100 26014G24KT P6SM FEW090 FM140300 23009KT P6SM FEW250
View NOTAMs / SUP AIP / TFR affecting this airport [VIEW]
Communications frequencies: [VIEW]

Runways:

RWY identifierQFULength (ft)Width (ft)SurfaceLDA (ft)
16339122ASPH
34339122ASPH

Airport contact information

Address: Smith Valley United States

Satellite view of NV33